sensor_id;sensor_type;location;lat;lon;timestamp;pressure;altitude;pressure_sealevel;temperature;humidity
17209;BME280;8720;48.488;9.202;2023-02-11T00:01:24;99000.28;;;3.01;57.23
17209;BME280;8720;48.488;9.202;2023-02-11T00:03:54;98999.34;;;2.99;56.86
17209;BME280;8720;48.488;9.202;2023-02-11T00:06:23;99012.06;;;2.94;56.89
17209;BME280;8720;48.488;9.202;2023-02-11T00:08:51;99017.25;;;2.94;57.00
17209;BME280;8720;48.488;9.202;2023-02-11T00:11:20;99023.19;;;2.92;57.01
17209;BME280;8720;48.488;9.202;2023-02-11T00:13:50;99019.59;;;2.88;57.11
17209;BME280;8720;48.488;9.202;2023-02-11T00:16:19;99010.91;;;2.86;57.13
17209;BME280;8720;48.488;9.202;2023-02-11T00:18:47;99029.00;;;2.86;56.99
17209;BME280;8720;48.488;9.202;2023-02-11T00:21:19;99019.41;;;2.84;56.73
17209;BME280;8720;48.488;9.202;2023-02-11T00:23:47;99007.00;;;2.73;56.99
17209;BME280;8720;48.488;9.202;2023-02-11T00:26:17;99023.53;;;2.78;56.95
17209;BME280;8720;48.488;9.202;2023-02-11T00:28:49;99020.84;;;2.75;56.95
17209;BME280;8720;48.488;9.202;2023-02-11T00:31:19;99025.94;;;2.74;56.94
17209;BME280;8720;48.488;9.202;2023-02-11T00:33:47;99024.13;;;2.71;56.79
17209;BME280;8720;48.488;9.202;2023-02-11T00:36:20;99031.81;;;2.70;56.83
17209;BME280;8720;48.488;9.202;2023-02-11T00:38:49;99026.53;;;2.67;56.97
17209;BME280;8720;48.488;9.202;2023-02-11T00:41:18;99022.13;;;2.64;56.78
17209;BME280;8720;48.488;9.202;2023-02-11T00:43:45;99002.75;;;2.53;56.87
17209;BME280;8720;48.488;9.202;2023-02-11T00:46:14;99016.78;;;2.60;56.97
17209;BME280;8720;48.488;9.202;2023-02-11T00:48:41;99015.00;;;2.59;56.89
17209;BME280;8720;48.488;9.202;2023-02-11T00:51:09;99014.06;;;2.57;57.23
17209;BME280;8720;48.488;9.202;2023-02-11T00:53:38;99013.22;;;2.56;56.85
17209;BME280;8720;48.488;9.202;2023-02-11T00:56:06;99014.91;;;2.56;57.03
17209;BME280;8720;48.488;9.202;2023-02-11T00:58:34;98998.47;;;2.54;57.28
17209;BME280;8720;48.488;9.202;2023-02-11T01:01:02;99001.81;;;2.51;57.21
17209;BME280;8720;48.488;9.202;2023-02-11T01:03:30;99006.31;;;2.57;57.22
17209;BME280;8720;48.488;9.202;2023-02-11T01:05:58;99003.78;;;2.58;57.08
17209;BME280;8720;48.488;9.202;2023-02-11T01:08:25;99002.94;;;2.58;57.18
17209;BME280;8720;48.488;9.202;2023-02-11T01:10:56;99000.34;;;2.58;57.00
17209;BME280;8720;48.488;9.202;2023-02-11T01:13:25;98997.78;;;2.58;56.94
17209;BME280;8720;48.488;9.202;2023-02-11T01:15:54;98995.19;;;2.58;57.24
17209;BME280;8720;48.488;9.202;2023-02-11T01:18:24;98978.75;;;2.56;57.32
17209;BME280;8720;48.488;9.202;2023-02-11T01:20:52;98971.81;;;2.55;57.07
17209;BME280;8720;48.488;9.202;2023-02-11T01:23:20;98970.09;;;2.55;57.16
17209;BME280;8720;48.488;9.202;2023-02-11T01:25:47;98963.25;;;2.56;57.33
17209;BME280;8720;48.488;9.202;2023-02-11T01:28:19;98970.16;;;2.57;57.32
17209;BME280;8720;48.488;9.202;2023-02-11T01:30:46;98966.78;;;2.58;57.68
17209;BME280;8720;48.488;9.202;2023-02-11T01:33:14;98971.09;;;2.59;57.32
17209;BME280;8720;48.488;9.202;2023-02-11T01:35:42;98968.56;;;2.60;57.28
17209;BME280;8720;48.488;9.202;2023-02-11T01:38:16;98951.97;;;2.54;57.40
17209;BME280;8720;48.488;9.202;2023-02-11T01:40:50;98957.25;;;2.57;57.22
17209;BME280;8720;48.488;9.202;2023-02-11T01:43:20;98962.78;;;2.66;57.37
17209;BME280;8720;48.488;9.202;2023-02-11T01:46:31;98959.34;;;2.67;57.53
17209;BME280;8720;48.488;9.202;2023-02-11T01:49:05;98951.56;;;2.65;57.42
17209;BME280;8720;48.488;9.202;2023-02-11T01:51:37;98949.03;;;2.67;57.28
17209;BME280;8720;48.488;9.202;2023-02-11T01:54:09;98949.97;;;2.69;57.19
17209;BME280;8720;48.488;9.202;2023-02-11T01:56:58;98936.09;;;2.67;57.12
17209;BME280;8720;48.488;9.202;2023-02-11T01:59:58;98930.88;;;2.65;57.10
17209;BME280;8720;48.488;9.202;2023-02-11T02:02:48;98931.78;;;2.66;57.18
17209;BME280;8720;48.488;9.202;2023-02-11T02:05:28;98932.63;;;2.66;57.27
17209;BME280;8720;48.488;9.202;2023-02-11T02:08:06;98924.88;;;2.66;57.13
17209;BME280;8720;48.488;9.202;2023-02-11T02:10:41;98930.13;;;2.68;56.95
17209;BME280;8720;48.488;9.202;2023-02-11T02:13:09;98925.81;;;2.68;57.01
17209;BME280;8720;48.488;9.202;2023-02-11T02:15:40;98919.47;;;2.60;57.08
17209;BME280;8720;48.488;9.202;2023-02-11T02:18:34;98928.25;;;2.64;56.93
17209;BME280;8720;48.488;9.202;2023-02-11T02:21:35;98932.34;;;2.59;57.06
17209;BME280;8720;48.488;9.202;2023-02-11T02:25:07;98928.78;;;2.55;57.06
17209;BME280;8720;48.488;9.202;2023-02-11T02:27:49;98916.38;;;2.47;57.04
17209;BME280;8720;48.488;9.202;2023-02-11T02:30:48;98917.13;;;2.43;57.06
17209;BME280;8720;48.488;9.202;2023-02-11T02:33:37;98921.34;;;2.41;57.35
17209;BME280;8720;48.488;9.202;2023-02-11T02:36:17;98913.47;;;2.38;57.22
17209;BME280;8720;48.488;9.202;2023-02-11T02:38:56;98918.63;;;2.38;57.02
17209;BME280;8720;48.488;9.202;2023-02-11T02:41:29;98916.88;;;2.37;57.09
17209;BME280;8720;48.488;9.202;2023-02-11T02:43:57;98918.63;;;2.38;57.13
17209;BME280;8720;48.488;9.202;2023-02-11T02:46:27;98919.53;;;2.38;57.12
17209;BME280;8720;48.488;9.202;2023-02-11T02:48:57;98917.00;;;2.40;57.14
17209;BME280;8720;48.488;9.202;2023-02-11T02:58:35;98915.25;;;2.39;57.33
17209;BME280;8720;48.488;9.202;2023-02-11T03:03:47;98911.06;;;2.42;57.50
17209;BME280;8720;48.488;9.202;2023-02-11T03:06:29;98903.38;;;2.44;57.28
17209;BME280;8720;48.488;9.202;2023-02-11T03:09:04;98903.47;;;2.47;57.19
17209;BME280;8720;48.488;9.202;2023-02-11T03:11:35;98901.81;;;2.49;57.21
17209;BME280;8720;48.488;9.202;2023-02-11T03:14:08;98891.50;;;2.49;57.07
17209;BME280;8720;48.488;9.202;2023-02-11T03:16:38;98873.78;;;2.36;57.32
17209;BME280;8720;48.488;9.202;2023-02-11T03:19:11;98890.75;;;2.51;57.23
17209;BME280;8720;48.488;9.202;2023-02-11T03:21:43;98895.03;;;2.51;57.16
17209;BME280;8720;48.488;9.202;2023-02-11T03:24:17;98896.84;;;2.53;57.15
17209;BME280;8720;48.488;9.202;2023-02-11T03:26:51;98893.47;;;2.54;57.27
17209;BME280;8720;48.488;9.202;2023-02-11T03:29:32;98892.63;;;2.55;57.06
17209;BME280;8720;48.488;9.202;2023-02-11T03:32:06;98883.16;;;2.56;57.14
17209;BME280;8720;48.488;9.202;2023-02-11T03:34:48;98884.91;;;2.57;56.94
17209;BME280;8720;48.488;9.202;2023-02-11T03:37:26;98877.22;;;2.58;56.93
17209;BME280;8720;48.488;9.202;2023-02-11T03:40:01;98863.50;;;2.59;57.08
17209;BME280;8720;48.488;9.202;2023-02-11T03:42:35;98866.97;;;2.60;57.10
17209;BME280;8720;48.488;9.202;2023-02-11T03:45:08;98872.13;;;2.60;57.06
17209;BME280;8720;48.488;9.202;2023-02-11T03:47:44;98885.16;;;2.63;57.03
17209;BME280;8720;48.488;9.202;2023-02-11T03:50:14;98885.19;;;2.64;56.96
17209;BME280;8720;48.488;9.202;2023-02-11T03:52:46;98890.44;;;2.66;57.00
17209;BME280;8720;48.488;9.202;2023-02-11T03:55:18;98893.97;;;2.68;56.79
17209;BME280;8720;48.488;9.202;2023-02-11T03:57:47;98899.97;;;2.68;56.94
17209;BME280;8720;48.488;9.202;2023-02-11T04:00:15;98906.94;;;2.69;57.00
17209;BME280;8720;48.488;9.202;2023-02-11T04:02:43;98913.88;;;2.72;57.03
17209;BME280;8720;48.488;9.202;2023-02-11T04:05:15;98917.25;;;2.69;57.00
17209;BME280;8720;48.488;9.202;2023-02-11T04:07:43;98914.72;;;2.71;56.94
17209;BME280;8720;48.488;9.202;2023-02-11T04:10:11;98919.00;;;2.70;56.82
17209;BME280;8720;48.488;9.202;2023-02-11T04:12:39;98915.53;;;2.70;56.61
17209;BME280;8720;48.488;9.202;2023-02-11T04:15:07;98912.06;;;2.68;56.84
17209;BME280;8720;48.488;9.202;2023-02-11T04:17:35;98918.03;;;2.67;56.71
17209;BME280;8720;48.488;9.202;2023-02-11T04:20:03;98920.56;;;2.65;56.80
17209;BME280;8720;48.488;9.202;2023-02-11T04:22:31;98917.94;;;2.64;57.16
17209;BME280;8720;48.488;9.202;2023-02-11T04:25:00;98907.50;;;2.62;57.19
17209;BME280;8720;48.488;9.202;2023-02-11T04:27:27;98904.88;;;2.61;57.18
17209;BME280;8720;48.488;9.202;2023-02-11T04:29:54;98901.47;;;2.62;57.23
17209;BME280;8720;48.488;9.202;2023-02-11T04:32:21;98898.91;;;2.62;57.21
17209;BME280;8720;48.488;9.202;2023-02-11T04:34:49;98893.84;;;2.65;57.07
17209;BME280;8720;48.488;9.202;2023-02-11T04:37:17;98883.63;;;2.68;57.09
17209;BME280;8720;48.488;9.202;2023-02-11T04:39:44;98886.31;;;2.71;57.27
17209;BME280;8720;48.488;9.202;2023-02-11T04:42:12;98896.88;;;2.77;57.28
17209;BME280;8720;48.488;9.202;2023-02-11T04:44:40;98892.63;;;2.79;57.31
17209;BME280;8720;48.488;9.202;2023-02-11T04:47:07;98892.75;;;2.82;57.44
17209;BME280;8720;48.488;9.202;2023-02-11T04:49:34;98906.78;;;2.89;57.70
17209;BME280;8720;48.488;9.202;2023-02-11T04:52:02;98895.81;;;2.96;57.37
17209;BME280;8720;48.488;9.202;2023-02-11T04:54:29;98896.03;;;3.02;57.47
17209;BME280;8720;48.488;9.202;2023-02-11T04:56:56;98897.16;;;3.08;57.59
17209;BME280;8720;48.488;9.202;2023-02-11T04:59:25;98904.19;;;3.12;57.20
17209;BME280;8720;48.488;9.202;2023-02-11T05:01:52;98901.59;;;3.12;57.21
17209;BME280;8720;48.488;9.202;2023-02-11T05:04:19;98909.34;;;3.12;57.28
17209;BME280;8720;48.488;9.202;2023-02-11T05:06:47;98899.94;;;3.14;57.63
17209;BME280;8720;48.488;9.202;2023-02-11T05:09:14;98904.44;;;3.20;57.40
17209;BME280;8720;48.488;9.202;2023-02-11T05:11:42;98903.78;;;3.25;57.34
17209;BME280;8720;48.488;9.202;2023-02-11T05:14:09;98896.22;;;3.31;57.43
17209;BME280;8720;48.488;9.202;2023-02-11T05:16:38;98880.03;;;3.37;57.47
17209;BME280;8720;48.488;9.202;2023-02-11T05:19:05;98879.38;;;3.42;57.30
17209;BME280;8720;48.488;9.202;2023-02-11T05:21:32;98878.63;;;3.46;57.33
17209;BME280;8720;48.488;9.202;2023-02-11T05:24:00;98878.81;;;3.51;57.26
17209;BME280;8720;48.488;9.202;2023-02-11T05:26:27;98877.19;;;3.54;57.46
17209;BME280;8720;48.488;9.202;2023-02-11T05:28:55;98871.28;;;3.58;57.21
17209;BME280;8720;48.488;9.202;2023-02-11T05:31:22;98874.84;;;3.62;57.11
17209;BME280;8720;48.488;9.202;2023-02-11T05:33:51;98873.28;;;3.67;57.19
17209;BME280;8720;48.488;9.202;2023-02-11T05:36:18;98873.44;;;3.72;57.09
17209;BME280;8720;48.488;9.202;2023-02-11T05:38:45;98874.38;;;3.74;57.16
17209;BME280;8720;48.488;9.202;2023-02-11T05:41:13;98869.28;;;3.77;57.09
17209;BME280;8720;48.488;9.202;2023-02-11T05:43:40;98845.22;;;3.79;57.09
17209;BME280;8720;48.488;9.202;2023-02-11T05:46:08;98843.56;;;3.81;57.13
17209;BME280;8720;48.488;9.202;2023-02-11T05:48:35;98841.84;;;3.82;57.03
17209;BME280;8720;48.488;9.202;2023-02-11T05:51:04;98839.31;;;3.83;57.10
17209;BME280;8720;48.488;9.202;2023-02-11T05:53:31;98834.13;;;3.83;57.20
17209;BME280;8720;48.488;9.202;2023-02-11T05:55:59;98835.94;;;3.86;56.96
17209;BME280;8720;48.488;9.202;2023-02-11T05:58:26;98811.81;;;3.87;57.13
17209;BME280;8720;48.488;9.202;2023-02-11T06:00:54;98819.59;;;3.88;57.01
17209;BME280;8720;48.488;9.202;2023-02-11T06:03:21;98829.16;;;3.89;57.00
17209;BME280;8720;48.488;9.202;2023-02-11T06:05:48;98826.59;;;3.91;57.10
17209;BME280;8720;48.488;9.202;2023-02-11T06:08:17;98820.66;;;3.93;56.97
17209;BME280;8720;48.488;9.202;2023-02-11T06:10:44;98819.03;;;3.97;57.20
17209;BME280;8720;48.488;9.202;2023-02-11T06:13:11;98808.75;;;4.00;57.07
17209;BME280;8720;48.488;9.202;2023-02-11T06:15:39;98806.31;;;4.04;57.15
17209;BME280;8720;48.488;9.202;2023-02-11T06:18:06;98820.19;;;4.06;57.15
17209;BME280;8720;48.488;9.202;2023-02-11T06:20:34;98828.88;;;4.08;56.95
17209;BME280;8720;48.488;9.202;2023-02-11T06:23:02;98819.41;;;4.09;56.96
17209;BME280;8720;48.488;9.202;2023-02-11T06:25:31;98815.94;;;4.08;57.08
17209;BME280;8720;48.488;9.202;2023-02-11T06:27:58;98829.84;;;4.12;57.15
17209;BME280;8720;48.488;9.202;2023-02-11T06:30:25;98835.09;;;4.15;57.02
17209;BME280;8720;48.488;9.202;2023-02-11T06:32:52;98843.88;;;4.18;57.20
17209;BME280;8720;48.488;9.202;2023-02-11T06:35:20;98843.00;;;4.19;57.09
17209;BME280;8720;48.488;9.202;2023-02-11T06:37:47;98841.38;;;4.23;57.20
17209;BME280;8720;48.488;9.202;2023-02-11T06:40:15;98844.09;;;4.26;57.23
17209;BME280;8720;48.488;9.202;2023-02-11T06:42:43;98858.03;;;4.31;57.13
17209;BME280;8720;48.488;9.202;2023-02-11T06:45:11;98834.47;;;4.22;57.00
17209;BME280;8720;48.488;9.202;2023-02-11T06:47:39;98858.22;;;4.37;57.08
17209;BME280;8720;48.488;9.202;2023-02-11T06:50:11;98860.97;;;4.41;56.93
17209;BME280;8720;48.488;9.202;2023-02-11T06:52:38;98859.34;;;4.45;57.07
17209;BME280;8720;48.488;9.202;2023-02-11T06:55:06;98856.94;;;4.51;57.01
17209;BME280;8720;48.488;9.202;2023-02-11T06:57:34;98867.44;;;4.57;56.92
17209;BME280;8720;48.488;9.202;2023-02-11T07:00:03;98870.19;;;4.61;57.03
17209;BME280;8720;48.488;9.202;2023-02-11T07:02:30;98858.19;;;4.65;56.81
17209;BME280;8720;48.488;9.202;2023-02-11T07:04:58;98860.91;;;4.70;56.98
17209;BME280;8720;48.488;9.202;2023-02-11T07:07:26;98856.63;;;4.70;56.88
17209;BME280;8720;48.488;9.202;2023-02-11T07:09:54;98869.03;;;4.82;56.92
17209;BME280;8720;48.488;9.202;2023-02-11T07:12:21;98870.00;;;4.85;56.90
17209;BME280;8720;48.488;9.202;2023-02-11T07:14:48;98870.06;;;4.88;56.92
17209;BME280;8720;48.488;9.202;2023-02-11T07:17:17;98873.69;;;4.93;56.96
17209;BME280;8720;48.488;9.202;2023-02-11T07:19:44;98879.09;;;5.01;56.86
17209;BME280;8720;48.488;9.202;2023-02-11T07:22:11;98883.56;;;5.06;56.72
17209;BME280;8720;48.488;9.202;2023-02-11T07:24:39;98870.72;;;5.11;56.55
17209;BME280;8720;48.488;9.202;2023-02-11T07:27:06;98870.81;;;5.15;56.43
17209;BME280;8720;48.488;9.202;2023-02-11T07:29:33;98873.53;;;5.18;56.79
17209;BME280;8720;48.488;9.202;2023-02-11T07:32:01;98877.09;;;5.23;56.62
17209;BME280;8720;48.488;9.202;2023-02-11T07:34:29;98876.31;;;5.26;56.41
17209;BME280;8720;48.488;9.202;2023-02-11T07:36:56;98863.38;;;5.27;56.54
17209;BME280;8720;48.488;9.202;2023-02-11T07:39:24;98866.03;;;5.30;56.46
17209;BME280;8720;48.488;9.202;2023-02-11T07:41:52;98871.31;;;5.33;56.48
17209;BME280;8720;48.488;9.202;2023-02-11T07:44:19;98874.03;;;5.38;56.55
17209;BME280;8720;48.488;9.202;2023-02-11T07:46:47;98873.59;;;5.55;54.98
17209;BME280;8720;48.488;9.202;2023-02-11T07:49:15;98866.00;;;5.63;55.71
17209;BME280;8720;48.488;9.202;2023-02-11T07:51:43;98857.53;;;5.69;55.82
17209;BME280;8720;48.488;9.202;2023-02-11T07:54:12;98861.13;;;5.75;55.98
17209;BME280;8720;48.488;9.202;2023-02-11T07:56:39;98853.63;;;5.84;56.19
17209;BME280;8720;48.488;9.202;2023-02-11T07:59:07;98862.53;;;5.95;56.32
17209;BME280;8720;48.488;9.202;2023-02-11T08:01:34;98874.91;;;6.07;56.06
17209;BME280;8720;48.488;9.202;2023-02-11T08:04:03;98872.56;;;6.17;56.10
17209;BME280;8720;48.488;9.202;2023-02-11T08:06:33;98878.06;;;6.31;56.20
17209;BME280;8720;48.488;9.202;2023-02-11T08:09:05;98879.25;;;6.45;56.13
17209;BME280;8720;48.488;9.202;2023-02-11T08:11:34;98878.66;;;6.58;56.27
17209;BME280;8720;48.488;9.202;2023-02-11T08:14:01;98863.38;;;6.73;56.13
17209;BME280;8720;48.488;9.202;2023-02-11T08:16:31;98858.47;;;6.87;55.88
17209;BME280;8720;48.488;9.202;2023-02-11T08:19:02;98861.34;;;7.00;55.80
17209;BME280;8720;48.488;9.202;2023-02-11T08:21:30;98853.81;;;7.15;55.87
17209;BME280;8720;48.488;9.202;2023-02-11T08:24:00;98848.81;;;7.26;55.79
17209;BME280;8720;48.488;9.202;2023-02-11T08:26:31;98849.03;;;7.38;55.54
17209;BME280;8720;48.488;9.202;2023-02-11T08:29:02;98857.00;;;7.46;55.73
17209;BME280;8720;48.488;9.202;2023-02-11T08:31:35;98858.00;;;7.54;55.53
17209;BME280;8720;48.488;9.202;2023-02-11T08:34:03;98853.81;;;7.63;55.83
17209;BME280;8720;48.488;9.202;2023-02-11T08:36:34;98855.75;;;7.75;55.78
17209;BME280;8720;48.488;9.202;2023-02-11T08:39:05;98847.22;;;7.85;55.59
17209;BME280;8720;48.488;9.202;2023-02-11T08:41:34;98857.84;;;7.97;55.62
17209;BME280;8720;48.488;9.202;2023-02-11T08:44:02;98857.16;;;8.10;55.77
17209;BME280;8720;48.488;9.202;2023-02-11T08:46:30;98850.34;;;8.19;55.88
17209;BME280;8720;48.488;9.202;2023-02-11T08:48:57;98855.78;;;8.32;55.80
17209;BME280;8720;48.488;9.202;2023-02-11T08:51:27;98868.28;;;8.52;55.69
17209;BME280;8720;48.488;9.202;2023-02-11T08:53:56;98864.97;;;8.65;55.65
17209;BME280;8720;48.488;9.202;2023-02-11T08:56:23;98876.41;;;8.78;55.65
17209;BME280;8720;48.488;9.202;2023-02-11T08:58:53;98871.34;;;8.88;55.46
17209;BME280;8720;48.488;9.202;2023-02-11T09:01:27;98876.59;;;8.93;55.28
17209;BME280;8720;48.488;9.202;2023-02-11T09:03:55;98883.66;;;9.00;55.25
17209;BME280;8720;48.488;9.202;2023-02-11T09:06:24;98881.06;;;9.01;54.98
17209;BME280;8720;48.488;9.202;2023-02-11T09:08:55;98863.69;;;9.03;54.96
17209;BME280;8720;48.488;9.202;2023-02-11T09:11:28;98855.88;;;9.06;54.76
17209;BME280;8720;48.488;9.202;2023-02-11T09:13:57;98850.66;;;9.05;54.77
17209;BME280;8720;48.488;9.202;2023-02-11T09:16:27;98844.66;;;9.12;54.54
17209;BME280;8720;48.488;9.202;2023-02-11T09:21:29;98842.94;;;9.15;54.76
17209;BME280;8720;48.488;9.202;2023-02-11T09:23:57;98841.25;;;9.18;54.98
17209;BME280;8720;48.488;9.202;2023-02-11T09:26:27;98832.53;;;9.20;55.03
17209;BME280;8720;48.488;9.202;2023-02-11T09:28:56;98831.63;;;9.18;55.07
17209;BME280;8720;48.488;9.202;2023-02-11T09:31:26;98825.66;;;9.28;55.12
17209;BME280;8720;48.488;9.202;2023-02-11T09:33:56;98825.72;;;9.33;55.22
17209;BME280;8720;48.488;9.202;2023-02-11T09:36:26;98834.44;;;9.33;55.37
17209;BME280;8720;48.488;9.202;2023-02-11T09:38:57;98839.69;;;9.36;55.33
17209;BME280;8720;48.488;9.202;2023-02-11T09:41:58;98838.84;;;9.40;55.95
17209;BME280;8720;48.488;9.202;2023-02-11T09:44:32;98845.81;;;9.40;55.71
17209;BME280;8720;48.488;9.202;2023-02-11T09:47:03;98845.78;;;9.37;55.63
17209;BME280;8720;48.488;9.202;2023-02-11T09:49:37;98835.34;;;9.37;55.93
17209;BME280;8720;48.488;9.202;2023-02-11T09:52:17;98831.00;;;9.40;56.00
17209;BME280;8720;48.488;9.202;2023-02-11T09:54:55;98831.97;;;9.47;56.04
17209;BME280;8720;48.488;9.202;2023-02-11T09:57:30;98832.88;;;9.55;55.93
17209;BME280;8720;48.488;9.202;2023-02-11T10:00:00;98832.94;;;9.61;56.02
17209;BME280;8720;48.488;9.202;2023-02-11T10:03:19;98825.16;;;9.64;56.59
17209;BME280;8720;48.488;9.202;2023-02-11T10:06:17;98825.09;;;9.61;56.78
17209;BME280;8720;48.488;9.202;2023-02-11T10:09:00;98816.38;;;9.59;56.50
17209;BME280;8720;48.488;9.202;2023-02-11T10:11:41;98828.66;;;9.69;56.57
17209;BME280;8720;48.488;9.202;2023-02-11T10:14:39;98833.09;;;9.79;56.59
17209;BME280;8720;48.488;9.202;2023-02-11T10:17:23;98828.81;;;9.88;56.85
17209;BME280;8720;48.488;9.202;2023-02-11T10:20:11;98824.53;;;9.96;56.64
17209;BME280;8720;48.488;9.202;2023-02-11T10:22:46;98831.53;;;10.03;56.59
17209;BME280;8720;48.488;9.202;2023-02-11T10:25:22;98837.75;;;10.13;56.64
17209;BME280;8720;48.488;9.202;2023-02-11T10:27:51;98833.41;;;10.18;56.48
17209;BME280;8720;48.488;9.202;2023-02-11T10:30:28;98830.88;;;10.32;56.53
17209;BME280;8720;48.488;9.202;2023-02-11T10:33:03;98820.50;;;10.42;56.45
17209;BME280;8720;48.488;9.202;2023-02-11T10:35:37;98819.69;;;10.54;56.69
17209;BME280;8720;48.488;9.202;2023-02-11T10:38:05;98818.91;;;10.70;56.60
17209;BME280;8720;48.488;9.202;2023-02-11T10:40:32;98810.22;;;10.86;56.11
17209;BME280;8720;48.488;9.202;2023-02-11T10:43:05;98812.00;;;10.97;56.18
17209;BME280;8720;48.488;9.202;2023-02-11T10:45:37;98809.41;;;11.13;56.16
17209;BME280;8720;48.488;9.202;2023-02-11T10:48:41;98802.47;;;11.28;56.84
17209;BME280;8720;48.488;9.202;2023-02-11T10:51:17;98801.63;;;11.41;56.02
17209;BME280;8720;48.488;9.202;2023-02-11T10:53:47;98799.00;;;11.52;55.74
17209;BME280;8720;48.488;9.202;2023-02-11T10:56:22;98792.88;;;11.59;55.55
17209;BME280;8720;48.488;9.202;2023-02-11T10:59:00;98788.53;;;11.64;55.16
17209;BME280;8720;48.488;9.202;2023-02-11T11:01:40;98780.69;;;11.67;55.14
17209;BME280;8720;48.488;9.202;2023-02-11T11:04:44;98776.31;;;11.67;55.84
17209;BME280;8720;48.488;9.202;2023-02-11T11:07:19;98777.22;;;11.68;54.99
17209;BME280;8720;48.488;9.202;2023-02-11T11:09:51;98773.69;;;11.69;54.95
17209;BME280;8720;48.488;9.202;2023-02-11T11:12:36;98775.47;;;11.68;55.00
17209;BME280;8720;48.488;9.202;2023-02-11T11:15:18;98781.56;;;11.64;55.00
17209;BME280;8720;48.488;9.202;2023-02-11T11:17:47;98778.91;;;11.61;54.92
17209;BME280;8720;48.488;9.202;2023-02-11T11:20:22;98771.06;;;11.58;54.96
17209;BME280;8720;48.488;9.202;2023-02-11T11:22:53;98771.03;;;11.55;54.79
17209;BME280;8720;48.488;9.202;2023-02-11T11:25:37;98778.94;;;11.57;55.00
17209;BME280;8720;48.488;9.202;2023-02-11T11:28:05;98777.16;;;11.56;55.08
17209;BME280;8720;48.488;9.202;2023-02-11T11:30:44;98771.94;;;11.56;55.06
17209;BME280;8720;48.488;9.202;2023-02-11T11:33:20;98764.94;;;11.58;55.01
17209;BME280;8720;48.488;9.202;2023-02-11T11:36:00;98756.19;;;11.51;55.12
17209;BME280;8720;48.488;9.202;2023-02-11T11:38:30;98759.69;;;11.59;55.09
17209;BME280;8720;48.488;9.202;2023-02-11T11:41:24;98765.78;;;11.63;55.52
17209;BME280;8720;48.488;9.202;2023-02-11T11:44:02;98767.59;;;11.68;55.30
17209;BME280;8720;48.488;9.202;2023-02-11T11:46:33;98767.59;;;11.71;55.25
17209;BME280;8720;48.488;9.202;2023-02-11T11:49:21;98771.94;;;11.78;55.47
17209;BME280;8720;48.488;9.202;2023-02-11T11:52:10;98762.34;;;11.85;55.61
17209;BME280;8720;48.488;9.202;2023-02-11T11:54:53;98768.47;;;11.92;55.61
17209;BME280;8720;48.488;9.202;2023-02-11T11:57:26;98763.19;;;11.99;55.19
17209;BME280;8720;48.488;9.202;2023-02-11T11:59:57;98757.06;;;11.99;55.29
17209;BME280;8720;48.488;9.202;2023-02-11T12:03:03;98764.88;;;12.15;56.04
17209;BME280;8720;48.488;9.202;2023-02-11T12:05:42;98766.63;;;12.25;55.27
17209;BME280;8720;48.488;9.202;2023-02-11T12:08:24;98752.63;;;12.34;55.07
17209;BME280;8720;48.488;9.202;2023-02-11T12:11:08;98756.09;;;12.43;55.29
17209;BME280;8720;48.488;9.202;2023-02-11T12:13:59;98749.06;;;12.51;54.89
17209;BME280;8720;48.488;9.202;2023-02-11T12:16:44;98738.50;;;12.57;55.00
17209;BME280;8720;48.488;9.202;2023-02-11T12:22:49;98734.94;;;12.69;54.86
17209;BME280;8720;48.488;9.202;2023-02-11T12:25:27;98741.03;;;12.77;54.58
17209;BME280;8720;48.488;9.202;2023-02-11T12:28:09;98741.00;;;12.88;55.03
17209;BME280;8720;48.488;9.202;2023-02-11T12:31:16;98744.44;;;13.05;55.79
17209;BME280;8720;48.488;9.202;2023-02-11T12:34:15;98737.34;;;13.19;55.46
17209;BME280;8720;48.488;9.202;2023-02-11T12:37:05;98734.59;;;13.34;55.23
17209;BME280;8720;48.488;9.202;2023-02-11T12:39:43;98733.56;;;13.50;54.94
17209;BME280;8720;48.488;9.202;2023-02-11T12:42:34;98739.63;;;13.62;54.85
17209;BME280;8720;48.488;9.202;2023-02-11T12:45:40;98735.16;;;13.72;54.82
17209;BME280;8720;48.488;9.202;2023-02-11T12:48:24;98733.31;;;13.82;54.54
17209;BME280;8720;48.488;9.202;2023-02-11T12:51:05;98735.84;;;13.89;54.29
17209;BME280;8720;48.488;9.202;2023-02-11T12:54:01;98733.13;;;13.98;54.62
17209;BME280;8720;48.488;9.202;2023-02-11T12:56:38;98738.25;;;14.13;54.00
17209;BME280;8720;48.488;9.202;2023-02-11T12:59:18;98722.31;;;14.25;53.84
17209;BME280;8720;48.488;9.202;2023-02-11T13:01:49;98725.66;;;14.44;53.67
17209;BME280;8720;48.488;9.202;2023-02-11T13:04:26;98713.19;;;14.56;53.52
17209;BME280;8720;48.488;9.202;2023-02-11T13:06:58;98714.81;;;14.67;53.09
17209;BME280;8720;48.488;9.202;2023-02-11T13:09:34;98712.97;;;14.73;53.02
17209;BME280;8720;48.488;9.202;2023-02-11T13:12:06;98704.09;;;14.80;52.60
17209;BME280;8720;48.488;9.202;2023-02-11T13:14:59;98701.41;;;14.85;52.51
17209;BME280;8720;48.488;9.202;2023-02-11T13:17:36;98694.44;;;14.81;52.39
17209;BME280;8720;48.488;9.202;2023-02-11T13:20:23;98710.06;;;14.93;52.51
17209;BME280;8720;48.488;9.202;2023-02-11T13:23:02;98706.47;;;14.97;52.57
17209;BME280;8720;48.488;9.202;2023-02-11T13:25:40;98706.44;;;14.98;52.34
17209;BME280;8720;48.488;9.202;2023-02-11T13:28:36;98712.66;;;14.96;53.04
17209;BME280;8720;48.488;9.202;2023-02-11T13:31:10;98710.09;;;14.90;52.32
17209;BME280;8720;48.488;9.202;2023-02-11T13:33:41;98711.03;;;14.86;51.98
17209;BME280;8720;48.488;9.202;2023-02-11T13:36:18;98711.97;;;14.82;51.99
17209;BME280;8720;48.488;9.202;2023-02-11T13:38:58;98698.88;;;14.76;52.06
17209;BME280;8720;48.488;9.202;2023-02-11T13:41:33;98705.06;;;14.75;51.80
17209;BME280;8720;48.488;9.202;2023-02-11T13:44:16;98697.19;;;14.70;52.00
17209;BME280;8720;48.488;9.202;2023-02-11T13:46:58;98703.41;;;14.66;52.30
17209;BME280;8720;48.488;9.202;2023-02-11T13:49:34;98697.28;;;14.64;51.73
17209;BME280;8720;48.488;9.202;2023-02-11T13:52:22;98699.00;;;14.67;52.32
17209;BME280;8720;48.488;9.202;2023-02-11T13:54:53;98696.31;;;14.70;52.10
17209;BME280;8720;48.488;9.202;2023-02-11T13:57:30;98699.75;;;14.76;51.86
17209;BME280;8720;48.488;9.202;2023-02-11T14:00:03;98705.81;;;14.81;51.83
17209;BME280;8720;48.488;9.202;2023-02-11T14:02:36;98697.91;;;14.84;51.65
17209;BME280;8720;48.488;9.202;2023-02-11T14:05:33;98703.13;;;14.86;52.19
17209;BME280;8720;48.488;9.202;2023-02-11T14:08:23;98704.00;;;14.86;51.78
17209;BME280;8720;48.488;9.202;2023-02-11T14:11:48;98702.25;;;14.85;53.32